createdAt,value
2022-08-05T00:01:48.606Z,61.01
2022-08-05T00:04:08.361Z,61.40
2022-08-05T00:06:33.201Z,61.74
2022-08-05T00:08:58.305Z,61.24
2022-08-05T00:11:30.508Z,60.83
2022-08-05T00:13:53.017Z,60.62
2022-08-05T00:16:17.421Z,60.90
2022-08-05T00:18:44.236Z,60.74
2022-08-05T00:21:10.143Z,60.49
2022-08-05T00:23:46.470Z,60.83
2022-08-05T00:26:02.866Z,60.52
2022-08-05T00:28:29.425Z,59.97
2022-08-05T00:30:55.606Z,60.14
2022-08-05T00:34:55.634Z,60.31
2022-08-05T00:36:16.139Z,60.21
2022-08-05T00:38:14.688Z,60.08
2022-08-05T00:40:41.064Z,60.11
2022-08-05T00:43:07.822Z,59.73
2022-08-05T00:45:38.801Z,59.03
2022-08-05T00:48:05.605Z,58.52
2022-08-05T00:50:26.606Z,58.17
2022-08-05T00:52:53.473Z,57.87
2022-08-05T00:55:19.321Z,57.96
2022-08-05T00:57:58.508Z,58.37
2022-08-05T01:00:13.310Z,58.53
2022-08-05T01:02:38.581Z,58.57
2022-08-05T01:05:05.078Z,58.18
2022-08-05T01:07:31.750Z,58.15
2022-08-05T01:09:57.750Z,58.15
2022-08-05T01:12:24.117Z,58.03
2022-08-05T01:14:50.478Z,58.43
2022-08-05T01:17:16.893Z,58.82
2022-08-05T01:20:00.681Z,59.01
2022-08-05T01:22:10.852Z,59.25
2022-08-05T01:24:36.026Z,59.13
2022-08-05T01:27:17.904Z,58.81
2022-08-05T01:29:30.773Z,58.73
2022-08-05T01:31:56.825Z,59.29
2022-08-05T01:34:26.850Z,59.55
2022-08-05T01:36:49.571Z,59.73
2022-08-05T01:39:16.094Z,59.80
2022-08-05T01:41:44.369Z,59.80
2022-08-05T01:44:09.905Z,59.95
2022-08-05T01:46:41.476Z,60.18
2022-08-05T01:49:01.552Z,60.58
2022-08-05T01:51:29.395Z,60.79
2022-08-05T01:53:56.961Z,61.05
2022-08-05T01:58:13.077Z,61.25
2022-08-05T01:58:47.357Z,61.01
2022-08-05T02:01:13.497Z,61.31
2022-08-05T02:03:39.889Z,61.28
2022-08-05T02:06:37.035Z,61.59
2022-08-05T02:08:32.636Z,61.83
2022-08-05T02:10:59.140Z,62.24
2022-08-05T02:13:25.502Z,62.21
2022-08-05T02:15:51.883Z,62.22
2022-08-05T02:18:32.691Z,62.48
2022-08-05T02:20:44.771Z,62.12
2022-08-05T02:23:11.146Z,61.20
2022-08-05T02:25:49.553Z,60.61
2022-08-05T02:28:08.926Z,60.61
2022-08-05T02:30:30.278Z,60.61
2022-08-05T02:32:56.655Z,60.42
2022-08-05T02:35:28.259Z,60.49
2022-08-05T02:37:53.883Z,60.65
2022-08-05T02:40:15.796Z,60.39
2022-08-05T02:42:42.178Z,60.55
2022-08-05T02:45:08.592Z,60.53
2022-08-05T02:47:58.722Z,60.32
2022-08-05T02:50:01.322Z,60.48
2022-08-05T02:52:30.465Z,60.19
2022-08-05T02:54:54.113Z,60.15
2022-08-05T02:58:10.281Z,60.45
2022-08-05T02:59:50.111Z,60.67
2022-08-05T03:02:13.362Z,61.06
2022-08-05T03:04:39.719Z,61.33
2022-08-05T03:07:06.143Z,61.36
2022-08-05T03:09:37.661Z,61.58
2022-08-05T03:11:58.949Z,61.61
2022-08-05T03:14:25.326Z,61.32
2022-08-05T03:16:53.469Z,60.92
2022-08-05T03:19:33.126Z,60.85
2022-08-05T03:21:49.554Z,61.07
2022-08-05T03:24:10.919Z,60.99
2022-08-05T03:26:37.436Z,60.91
2022-08-05T03:29:03.825Z,60.72
2022-08-05T03:31:56.549Z,60.74
2022-08-05T03:33:56.547Z,60.84
2022-08-05T03:36:29.776Z,61.12
2022-08-05T03:38:52.564Z,61.66
2022-08-05T03:41:15.713Z,61.96
2022-08-05T03:44:09.023Z,62.34
2022-08-05T03:46:08.449Z,62.29
2022-08-05T03:48:35.073Z,62.09
2022-08-05T03:52:35.165Z,61.54
2022-08-05T03:55:51.169Z,61.26
2022-08-05T03:56:10.514Z,61.28
2022-08-05T03:58:20.304Z,61.69
2022-08-05T04:00:51.379Z,61.42
2022-08-05T04:03:26.597Z,61.08
2022-08-05T04:05:40.183Z,61.50
2022-08-05T04:08:14.828Z,61.53
2022-08-05T04:10:37.743Z,61.42
2022-08-05T04:12:58.974Z,61.04
2022-08-05T04:15:24.902Z,60.69
2022-08-05T04:17:56.258Z,60.67
2022-08-05T04:20:17.677Z,60.68
2022-08-05T04:22:44.039Z,60.78
2022-08-05T04:25:10.891Z,61.13
2022-08-05T04:27:43.606Z,61.43
2022-08-05T04:30:03.720Z,61.19
2022-08-05T04:32:30.996Z,61.53
2022-08-05T04:34:57.613Z,62.04
2022-08-05T04:37:23.085Z,61.93
2022-08-05T04:39:52.738Z,61.57
2022-08-05T04:42:15.196Z,61.11
2022-08-05T04:44:41.657Z,60.79
2022-08-05T04:47:08.772Z,61.13
2022-08-05T04:50:02.025Z,63.06
2022-08-05T04:52:00.891Z,62.29
2022-08-05T04:54:27.284Z,61.87
2022-08-05T04:56:56.298Z,61.33
2022-08-05T04:59:24.015Z,60.48
2022-08-05T05:02:07.624Z,60.07
2022-08-05T05:04:12.789Z,59.79
2022-08-05T05:06:44.924Z,59.55
2022-08-05T05:09:05.918Z,59.52
2022-08-05T05:11:41.562Z,59.33
2022-08-05T05:13:58.749Z,59.46
2022-08-05T05:16:30.413Z,59.57
2022-08-05T05:19:09.193Z,58.75
2022-08-05T05:21:18.082Z,58.42
2022-08-05T05:24:04.050Z,58.06
2022-08-05T05:26:10.864Z,57.96
2022-08-05T05:28:42.661Z,57.76
2022-08-05T05:31:05.631Z,57.65
2022-08-05T05:33:30.265Z,57.07
2022-08-05T05:35:56.622Z,56.35
2022-08-05T05:38:27.502Z,56.25
2022-08-05T05:40:51.314Z,56.27
2022-08-05T05:43:15.844Z,55.17
2022-08-05T05:45:42.626Z,54.78
2022-08-05T05:48:08.927Z,54.53
2022-08-05T05:50:35.039Z,54.19
2022-08-05T05:53:01.475Z,54.08
2022-08-05T05:55:52.363Z,53.76
2022-08-05T05:57:54.236Z,53.55
2022-08-05T06:00:20.729Z,53.21
2022-08-05T06:02:47.207Z,52.73
2022-08-05T06:05:16.445Z,52.05
2022-08-05T06:07:42.010Z,51.50
2022-08-05T06:10:10.272Z,51.59
2022-08-05T06:12:32.751Z,50.98
2022-08-05T06:14:59.132Z,50.54
2022-08-05T06:17:31.087Z,50.18
2022-08-05T06:19:56.742Z,50.12
2022-08-05T06:22:18.365Z,49.71
2022-08-05T06:24:48.280Z,49.20
2022-08-05T06:28:09.409Z,48.78
2022-08-05T06:29:46.644Z,48.42
2022-08-05T06:32:03.905Z,48.05
2022-08-05T06:34:30.271Z,48.08
2022-08-05T06:36:57.961Z,47.68
2022-08-05T06:39:24.620Z,47.41
2022-08-05T06:41:49.419Z,47.13
2022-08-05T06:44:15.797Z,46.80
2022-08-05T06:46:42.195Z,46.63
2022-08-05T06:49:08.685Z,46.37
2022-08-05T06:51:35.046Z,46.20
2022-08-05T06:54:01.695Z,45.91
2022-08-05T06:56:27.870Z,45.79
2022-08-05T06:58:54.219Z,45.72
2022-08-05T07:01:21.059Z,45.22
2022-08-05T07:03:47.015Z,45.07
2022-08-05T07:06:14.302Z,45.35
2022-08-05T07:08:39.911Z,44.73
2022-08-05T07:11:06.298Z,44.68
2022-08-05T07:13:57.147Z,44.05
2022-08-05T07:16:01.174Z,44.04
2022-08-05T07:18:30.253Z,43.40
2022-08-05T07:20:51.881Z,43.35
2022-08-05T07:23:26.448Z,42.35
2022-08-05T07:25:56.032Z,42.49
2022-08-05T07:28:17.117Z,41.96
2022-08-05T07:30:39.109Z,41.50
2022-08-05T07:33:05.499Z,41.69
2022-08-05T07:36:03.137Z,41.62
2022-08-05T07:37:56.764Z,41.25
2022-08-05T07:40:32.342Z,41.64
2022-08-05T07:42:49.582Z,41.07
2022-08-05T07:45:15.965Z,40.69
2022-08-05T07:47:42.752Z,40.64
2022-08-05T07:50:08.742Z,40.92
2022-08-05T07:52:35.124Z,40.55
2022-08-05T07:55:01.509Z,40.21
2022-08-05T07:57:51.163Z,40.92
2022-08-05T07:59:54.362Z,39.04
2022-08-05T08:02:20.755Z,38.56
2022-08-05T08:04:47.308Z,38.29
2022-08-05T08:07:13.567Z,37.85
2022-08-05T08:09:39.949Z,37.50
2022-08-05T08:12:14.681Z,37.69
2022-08-05T08:14:32.702Z,37.80
2022-08-05T08:16:59.074Z,38.41
2022-08-05T08:20:21.453Z,37.93
2022-08-05T08:21:51.825Z,38.24
2022-08-05T08:24:18.285Z,39.05
2022-08-05T08:26:44.675Z,38.55
2022-08-05T08:30:03.585Z,37.53
2022-08-05T08:31:37.676Z,36.33
2022-08-05T08:34:04.062Z,36.43
2022-08-05T08:36:47.694Z,35.89
2022-08-05T08:38:57.388Z,35.79
2022-08-05T08:41:26.209Z,35.96
2022-08-05T08:45:18.598Z,36.77
2022-08-05T08:46:16.238Z,36.86
2022-08-05T08:49:07.540Z,36.82
2022-08-05T08:51:54.566Z,36.22
2022-08-05T08:53:35.194Z,35.32
2022-08-05T08:56:04.879Z,36.21
2022-08-05T08:58:43.683Z,36.67
2022-08-05T09:00:54.496Z,36.60
2022-08-05T09:03:20.969Z,35.98
2022-08-05T09:06:07.941Z,35.81
2022-08-05T09:08:13.615Z,34.27
2022-08-05T09:10:40.218Z,35.19
2022-08-05T09:13:06.422Z,34.39
2022-08-05T09:15:37.040Z,33.81
2022-08-05T09:17:59.154Z,34.20
2022-08-05T09:20:37.491Z,33.72
2022-08-05T09:22:52.089Z,33.63
2022-08-05T09:25:23.832Z,31.61
2022-08-05T09:28:04.669Z,31.64
2022-08-05T09:30:16.494Z,32.16
2022-08-05T09:32:46.221Z,32.06
2022-08-05T09:35:04.021Z,31.40
2022-08-05T09:38:12.689Z,29.60
2022-08-05T09:39:56.941Z,29.64
2022-08-05T09:42:28.453Z,30.14
2022-08-05T09:44:50.507Z,30.35
2022-08-05T09:47:16.024Z,31.45
2022-08-05T09:49:55.001Z,31.73
2022-08-05T09:52:08.767Z,30.07
2022-08-05T09:54:35.195Z,29.69
2022-08-05T09:57:02.031Z,29.97
2022-08-05T09:59:27.990Z,30.29
2022-08-05T10:01:57.832Z,29.98
2022-08-05T10:04:29.357Z,30.58
2022-08-05T10:06:54.847Z,30.81
2022-08-05T10:09:25.338Z,29.93
2022-08-05T10:11:39.835Z,30.24
2022-08-05T10:14:06.195Z,30.34
2022-08-05T10:16:33.866Z,30.33
2022-08-05T10:18:58.985Z,30.23
2022-08-05T10:21:25.375Z,29.77
2022-08-05T10:23:59.445Z,29.66
2022-08-05T10:26:18.222Z,29.70
2022-08-05T10:28:45.047Z,29.57
2022-08-05T10:32:48.339Z,29.31
2022-08-05T10:33:37.347Z,29.43
2022-08-05T10:36:03.734Z,28.88
2022-08-05T10:38:33.276Z,29.57
2022-08-05T10:40:57.900Z,29.78
2022-08-05T10:43:23.291Z,29.24
2022-08-05T10:45:49.267Z,29.47
2022-08-05T10:48:30.043Z,29.05
2022-08-05T10:50:42.025Z,29.18
2022-08-05T10:53:08.415Z,29.00
2022-08-05T10:56:03.583Z,29.64
2022-08-05T10:58:01.182Z,29.51
2022-08-05T11:00:27.551Z,29.16
2022-08-05T11:02:54.108Z,28.78
2022-08-05T11:05:20.446Z,28.99
2022-08-05T11:08:03.181Z,29.02
2022-08-05T11:10:13.234Z,28.92
2022-08-05T11:12:41.193Z,28.94
2022-08-05T11:15:11.825Z,29.09
2022-08-05T11:17:57.401Z,28.65
2022-08-05T11:20:10.048Z,28.46
2022-08-05T11:22:25.217Z,28.64
2022-08-05T11:25:16.563Z,28.59
2022-08-05T11:27:17.985Z,28.96
2022-08-05T11:29:44.386Z,28.67
2022-08-05T11:32:10.774Z,28.98
2022-08-05T11:34:37.144Z,28.90
2022-08-05T11:37:06.144Z,28.84
2022-08-05T11:39:29.983Z,29.25
2022-08-05T11:42:04.615Z,29.35
2022-08-05T11:44:53.029Z,29.54
2022-08-05T11:46:58.119Z,29.17
2022-08-05T11:49:15.475Z,28.64
2022-08-05T11:51:44.668Z,28.46
2022-08-05T11:54:08.259Z,28.68
2022-08-05T11:56:40.661Z,28.79
2022-08-05T11:59:01.231Z,28.64
2022-08-05T12:01:27.642Z,29.02
2022-08-05T12:03:55.487Z,29.29
2022-08-05T12:06:20.396Z,29.54
2022-08-05T12:08:49.843Z,29.63
2022-08-05T12:11:17.249Z,29.71
2022-08-05T12:13:48.763Z,29.65
2022-08-05T12:16:14.894Z,29.51
2022-08-05T12:18:33.158Z,29.58
2022-08-05T12:20:58.797Z,29.70
2022-08-05T12:23:25.233Z,30.13
2022-08-05T12:25:51.627Z,30.41
2022-08-05T12:28:18.102Z,30.17
2022-08-05T12:30:45.751Z,30.56
2022-08-05T12:33:27.443Z,30.48
2022-08-05T12:35:39.835Z,31.21
2022-08-05T12:38:03.626Z,30.65
2022-08-05T12:40:30.046Z,30.87
2022-08-05T12:42:56.405Z,30.76
2022-08-05T12:45:22.787Z,30.93
2022-08-05T12:48:17.206Z,30.83
2022-08-05T12:50:15.566Z,30.76
2022-08-05T12:52:42.808Z,30.63
2022-08-05T12:55:08.295Z,30.38
2022-08-05T12:58:49.881Z,30.26
2022-08-05T13:01:57.606Z,30.42
2022-08-05T13:02:30.579Z,30.37
2022-08-05T13:04:54.706Z,30.64
2022-08-05T13:07:35.798Z,30.55
2022-08-05T13:09:50.445Z,30.39
2022-08-05T13:12:16.234Z,30.54
2022-08-05T13:14:39.565Z,30.87
2022-08-05T13:17:05.975Z,30.83
2022-08-05T13:19:51.760Z,30.48
2022-08-05T13:21:58.803Z,30.61
2022-08-05T13:24:36.529Z,30.86
2022-08-05T13:26:51.546Z,30.52
2022-08-05T13:29:18.977Z,30.60
2022-08-05T13:32:04.178Z,30.41
2022-08-05T13:34:20.920Z,30.95
2022-08-05T13:36:37.161Z,31.26
2022-08-05T13:39:08.390Z,31.61
2022-08-05T13:41:37.438Z,31.27
2022-08-05T13:43:56.396Z,31.66
2022-08-05T13:47:01.835Z,32.04
2022-08-05T13:48:58.906Z,31.80
2022-08-05T13:51:15.669Z,30.70
2022-08-05T13:53:47.437Z,30.91
2022-08-05T13:56:18.081Z,30.51
2022-08-05T13:58:34.770Z,30.63
2022-08-05T14:01:01.169Z,30.97
2022-08-05T14:03:27.580Z,31.40
2022-08-05T14:06:25.765Z,31.32
2022-08-05T14:08:27.743Z,31.52
2022-08-05T14:10:46.651Z,32.02
2022-08-05T14:13:13.072Z,32.22
2022-08-05T14:16:05.724Z,31.84
2022-08-05T14:18:05.886Z,31.32
2022-08-05T14:20:32.273Z,31.89
2022-08-05T14:22:58.656Z,31.61
2022-08-05T14:25:28.036Z,31.69
2022-08-05T14:27:51.520Z,32.15
2022-08-05T14:30:20.488Z,32.90
2022-08-05T14:32:44.338Z,32.31
2022-08-05T14:35:11.418Z,32.09
2022-08-05T14:37:45.713Z,31.84
2022-08-05T14:40:03.502Z,31.54
2022-08-05T14:42:29.982Z,32.82
2022-08-05T14:44:56.702Z,32.39
2022-08-05T14:48:02.632Z,33.19
2022-08-05T14:49:59.172Z,31.73
2022-08-05T14:52:30.582Z,32.05
2022-08-05T14:54:53.307Z,31.98
2022-08-05T14:57:09.803Z,32.73
2022-08-05T14:59:35.490Z,32.75
2022-08-05T15:02:01.090Z,33.28
2022-08-05T15:04:29.121Z,32.85
2022-08-05T15:06:53.759Z,33.38
2022-08-05T15:09:51.531Z,33.14
2022-08-05T15:11:52.767Z,33.67
2022-08-05T15:14:34.210Z,40.01
2022-08-05T15:16:39.298Z,39.28
2022-08-05T15:19:05.672Z,41.33
2022-08-05T15:21:32.073Z,42.27
2022-08-05T15:23:58.457Z,42.29
2022-08-05T15:26:32.106Z,42.49
2022-08-05T15:28:52.068Z,42.54
2022-08-05T15:31:17.594Z,42.70
2022-08-05T15:34:05.247Z,42.61
2022-08-05T15:36:17.289Z,42.02
2022-08-05T15:38:41.775Z,41.11
2022-08-05T15:41:22.322Z,41.11
2022-08-05T15:43:29.761Z,41.12
2022-08-05T15:46:00.078Z,40.86
2022-08-05T15:48:22.403Z,40.81
2022-08-05T15:50:48.806Z,40.95
2022-08-05T15:53:15.197Z,40.75
2022-08-05T15:56:02.909Z,40.81
2022-08-05T15:58:08.014Z,40.70
2022-08-05T16:00:50.326Z,40.66
2022-08-05T16:03:00.910Z,40.39
2022-08-05T16:05:28.445Z,40.33
2022-08-05T16:07:53.619Z,40.21
2022-08-05T16:10:25.325Z,40.18
2022-08-05T16:12:46.456Z,39.97
2022-08-05T16:15:18.161Z,40.38
2022-08-05T16:17:39.210Z,40.54
2022-08-05T16:20:11.243Z,40.78
2022-08-05T16:22:33.760Z,41.08
2022-08-05T16:24:58.356Z,40.39
2022-08-05T16:27:32.332Z,40.69
2022-08-05T16:29:51.373Z,40.55
2022-08-05T16:32:17.554Z,39.85
2022-08-05T16:34:43.922Z,40.45
2022-08-05T16:38:01.885Z,40.61
2022-08-05T16:40:04.969Z,40.55
2022-08-05T16:42:14.698Z,40.30
2022-08-05T16:44:29.461Z,40.14
2022-08-05T16:46:56.385Z,40.18
2022-08-05T16:49:22.359Z,40.86
2022-08-05T16:51:51.380Z,40.07
2022-08-05T16:54:18.575Z,39.75
2022-08-05T16:56:41.872Z,39.76
2022-08-05T16:59:08.697Z,40.10
2022-08-05T17:01:54.673Z,39.79
2022-08-05T17:04:00.724Z,40.34
2022-08-05T17:06:27.085Z,40.16
2022-08-05T17:08:54.608Z,40.26
2022-08-05T17:11:19.828Z,40.58
2022-08-05T17:13:46.207Z,40.51
2022-08-05T17:16:29.756Z,40.22
2022-08-05T17:18:39.075Z,39.94
2022-08-05T17:21:05.475Z,40.83
2022-08-05T17:24:04.959Z,41.42
2022-08-05T17:25:58.224Z,40.82
2022-08-05T17:28:24.661Z,40.90
2022-08-05T17:30:52.360Z,41.50
2022-08-05T17:33:17.409Z,41.40
2022-08-05T17:36:08.159Z,41.68
2022-08-05T17:38:10.282Z,41.47
2022-08-05T17:40:36.689Z,41.01
2022-08-05T17:43:03.096Z,40.31
2022-08-05T17:45:37.893Z,40.13
2022-08-05T17:47:56.381Z,40.58
2022-08-05T17:50:27.777Z,41.98
2022-08-05T17:52:52.868Z,42.25
2022-08-05T17:55:15.118Z,42.28
2022-08-05T17:57:41.543Z,42.19
2022-08-05T18:00:07.933Z,40.92
2022-08-05T18:02:34.410Z,40.54
2022-08-05T18:05:01.078Z,40.56
2022-08-05T18:07:32.970Z,40.10
2022-08-05T18:09:59.446Z,39.52
2022-08-05T18:12:24.303Z,39.50
2022-08-05T18:14:46.446Z,39.58
2022-08-05T18:18:00.134Z,39.85
2022-08-05T18:19:39.040Z,40.44
2022-08-05T18:22:08.499Z,40.74
2022-08-05T18:24:31.805Z,40.71
2022-08-05T18:26:58.224Z,40.83
2022-08-05T18:29:40.406Z,40.96
2022-08-05T18:31:51.040Z,40.71
2022-08-05T18:34:17.529Z,39.80
2022-08-05T18:36:43.899Z,39.26
2022-08-05T18:39:42.591Z,40.21
2022-08-05T18:42:00.435Z,39.96
2022-08-05T18:44:05.840Z,40.25
2022-08-05T18:46:29.377Z,40.19
2022-08-05T18:48:55.769Z,40.48
2022-08-05T18:52:03.340Z,40.25
2022-08-05T18:53:50.388Z,40.48
2022-08-05T18:56:14.935Z,40.81
2022-08-05T18:58:43.003Z,40.87
2022-08-05T19:01:08.068Z,40.97
2022-08-05T19:03:55.015Z,41.06
2022-08-05T19:06:11.605Z,41.11
2022-08-05T19:08:30.843Z,41.17
2022-08-05T19:10:53.797Z,41.41
2022-08-05T19:13:20.163Z,41.59
2022-08-05T19:15:58.260Z,42.13
2022-08-05T19:18:21.059Z,42.26
2022-08-05T19:20:41.440Z,42.44
2022-08-05T19:23:07.949Z,43.08
2022-08-05T19:25:41.917Z,43.49
2022-08-05T19:27:58.554Z,43.62
2022-08-05T19:30:24.976Z,43.81
2022-08-05T19:32:51.337Z,43.86
2022-08-05T19:35:17.729Z,44.03
2022-08-05T19:38:04.234Z,44.26
2022-08-05T19:40:10.844Z,44.33
2022-08-05T19:42:37.074Z,44.36
2022-08-05T19:45:06.014Z,44.69
2022-08-05T19:47:29.759Z,44.59
2022-08-05T19:49:57.167Z,44.03
2022-08-05T19:52:31.242Z,43.75
2022-08-05T19:54:48.969Z,44.05
2022-08-05T19:57:15.437Z,44.09
2022-08-05T19:59:56.536Z,44.21
2022-08-05T20:02:08.186Z,44.54
2022-08-05T20:04:34.626Z,44.50
2022-08-05T20:07:01.032Z,44.60
2022-08-05T20:09:27.424Z,44.54
2022-08-05T20:11:53.786Z,44.50
2022-08-05T20:14:23.519Z,44.35
2022-08-05T20:16:46.561Z,44.63
2022-08-05T20:19:12.978Z,44.76
2022-08-05T20:21:39.372Z,44.80
2022-08-05T20:24:05.743Z,45.01
2022-08-05T20:26:32.259Z,45.38
2022-08-05T20:29:00.765Z,46.59
2022-08-05T20:31:37.341Z,47.65
2022-08-05T20:33:51.431Z,48.00
2022-08-05T20:36:18.110Z,48.10
2022-08-05T20:38:54.611Z,48.31
2022-08-05T20:41:10.718Z,48.32
2022-08-05T20:43:59.824Z,48.48
2022-08-05T20:46:03.493Z,48.69
2022-08-05T20:48:29.857Z,48.72
2022-08-05T20:50:56.241Z,48.59
2022-08-05T20:53:36.270Z,48.80
2022-08-05T20:56:07.738Z,49.06
2022-08-05T20:58:15.418Z,49.31
2022-08-05T21:00:49.719Z,49.11
2022-08-05T21:03:08.351Z,49.21
2022-08-05T21:05:47.883Z,48.97
2022-08-05T21:08:00.977Z,49.21
2022-08-05T21:10:27.359Z,49.80
2022-08-05T21:13:08.186Z,50.22
2022-08-05T21:15:20.123Z,50.43
2022-08-05T21:17:46.494Z,50.09
2022-08-05T21:20:12.865Z,50.06
2022-08-05T21:22:39.263Z,50.34
2022-08-05T21:25:05.938Z,50.57
2022-08-05T21:27:38.645Z,50.55
2022-08-05T21:29:58.554Z,50.84
2022-08-05T21:32:27.091Z,51.14
2022-08-05T21:35:08.390Z,50.94
2022-08-05T21:37:17.724Z,50.47
2022-08-05T21:39:44.121Z,50.21
2022-08-05T21:42:19.826Z,50.13
2022-08-05T21:44:36.842Z,50.12
2022-08-05T21:47:03.216Z,50.35
2022-08-05T21:49:59.501Z,50.43
2022-08-05T21:52:22.133Z,50.40
2022-08-05T21:54:27.835Z,49.95
2022-08-05T21:56:51.464Z,49.89
2022-08-05T21:59:24.252Z,50.22
2022-08-05T22:01:41.657Z,50.42
2022-08-05T22:04:07.953Z,50.50
2022-08-05T22:06:35.660Z,50.67
2022-08-05T22:09:00.824Z,50.91
2022-08-05T22:11:34.992Z,50.97
2022-08-05T22:14:19.619Z,51.09
2022-08-05T22:16:41.133Z,51.08
2022-08-05T22:18:49.233Z,51.50
2022-08-05T22:21:18.618Z,51.67
2022-08-05T22:24:01.180Z,51.42
2022-08-05T22:26:10.745Z,51.21
2022-08-05T22:28:32.027Z,51.48
2022-08-05T22:31:05.109Z,51.94
2022-08-05T22:33:58.513Z,52.02
2022-08-05T22:35:51.280Z,51.88
2022-08-05T22:38:19.667Z,52.09
2022-08-05T22:40:49.565Z,52.49
2022-08-05T22:43:10.384Z,52.53
2022-08-05T22:45:36.753Z,52.55
2022-08-05T22:48:03.117Z,52.63
2022-08-05T22:50:29.509Z,52.88
2022-08-05T22:52:55.944Z,52.80
2022-08-05T22:55:22.320Z,52.82
2022-08-05T22:57:48.983Z,53.04
2022-08-05T23:00:17.781Z,53.14
2022-08-05T23:02:46.478Z,53.53
2022-08-05T23:05:07.946Z,53.77
2022-08-05T23:07:43.825Z,53.86
2022-08-05T23:10:01.403Z,53.74
2022-08-05T23:12:28.630Z,53.94
2022-08-05T23:14:53.383Z,53.84
2022-08-05T23:17:24.068Z,53.59
2022-08-05T23:19:50.925Z,53.47
2022-08-05T23:22:12.510Z,53.55
2022-08-05T23:24:38.963Z,53.66
2022-08-05T23:27:05.342Z,53.53
2022-08-05T23:29:34.599Z,53.55
2022-08-05T23:31:58.258Z,53.85
2022-08-05T23:34:24.948Z,54.02
2022-08-05T23:36:50.997Z,53.97
2022-08-05T23:39:31.988Z,53.86
2022-08-05T23:41:48.574Z,53.97
2022-08-05T23:44:10.168Z,53.87
2022-08-05T23:46:37.516Z,54.06
2022-08-05T23:49:16.133Z,54.26
2022-08-05T23:51:29.309Z,54.02
2022-08-05T23:54:01.064Z,54.25
2022-08-05T23:56:27.490Z,54.22
2022-08-05T23:58:48.465Z,54.24
